sensor_id;sensor_type;location;lat;lon;timestamp;pressure;altitude;pressure_sealevel;temperature;humidity
19811;BME280;10065;49.632;8.346;2023-03-21T00:02:21;100856.19;;;12.65;54.26
19811;BME280;10065;49.632;8.346;2023-03-21T00:04:49;100847.22;;;12.66;53.88
19811;BME280;10065;49.632;8.346;2023-03-21T00:07:20;100851.84;;;12.64;54.11
19811;BME280;10065;49.632;8.346;2023-03-21T00:09:48;100847.03;;;12.67;53.98
19811;BME280;10065;49.632;8.346;2023-03-21T00:12:17;100841.88;;;12.66;54.24
19811;BME280;10065;49.632;8.346;2023-03-21T00:14:46;100844.38;;;12.67;54.32
19811;BME280;10065;49.632;8.346;2023-03-21T00:17:14;100841.97;;;12.74;54.24
19811;BME280;10065;49.632;8.346;2023-03-21T00:19:42;100837.16;;;12.77;53.73
19811;BME280;10065;49.632;8.346;2023-03-21T00:22:11;100831.91;;;12.68;53.86
19811;BME280;10065;49.632;8.346;2023-03-21T00:24:39;100833.66;;;12.59;54.16
19811;BME280;10065;49.632;8.346;2023-03-21T00:27:07;100828.66;;;12.56;54.79
19811;BME280;10065;49.632;8.346;2023-03-21T00:29:56;100832.59;;;12.52;54.80
19811;BME280;10065;49.632;8.346;2023-03-21T00:32:24;100829.56;;;12.65;54.54
19811;BME280;10065;49.632;8.346;2023-03-21T00:34:52;100819.28;;;12.70;54.51
19811;BME280;10065;49.632;8.346;2023-03-21T00:37:39;100820.66;;;12.74;54.58
19811;BME280;10065;49.632;8.346;2023-03-21T00:40:08;100809.03;;;12.75;54.42
19811;BME280;10065;49.632;8.346;2023-03-21T00:42:51;100815.44;;;12.64;54.65
19811;BME280;10065;49.632;8.346;2023-03-21T00:45:20;100809.88;;;12.58;55.24
19811;BME280;10065;49.632;8.346;2023-03-21T00:47:48;100806.75;;;12.62;55.19
19811;BME280;10065;49.632;8.346;2023-03-21T00:50:16;100805.38;;;12.58;55.13
19811;BME280;10065;49.632;8.346;2023-03-21T00:52:44;100805.91;;;12.62;55.10
19811;BME280;10065;49.632;8.346;2023-03-21T00:55:13;100802.28;;;12.63;55.25
19811;BME280;10065;49.632;8.346;2023-03-21T00:57:41;100798.31;;;12.67;55.34
19811;BME280;10065;49.632;8.346;2023-03-21T01:00:16;100801.97;;;12.66;55.42
19811;BME280;10065;49.632;8.346;2023-03-21T01:02:45;100794.00;;;12.66;55.40
19811;BME280;10065;49.632;8.346;2023-03-21T01:05:44;100795.56;;;12.59;55.67
19811;BME280;10065;49.632;8.346;2023-03-21T01:08:32;100804.66;;;12.48;55.78
19811;BME280;10065;49.632;8.346;2023-03-21T01:11:18;100802.66;;;12.50;55.95
19811;BME280;10065;49.632;8.346;2023-03-21T01:13:46;100795.66;;;12.49;56.21
19811;BME280;10065;49.632;8.346;2023-03-21T01:16:34;100791.78;;;12.43;56.21
19811;BME280;10065;49.632;8.346;2023-03-21T01:19:06;100784.22;;;12.49;56.15
19811;BME280;10065;49.632;8.346;2023-03-21T01:21:47;100785.91;;;12.58;55.87
19811;BME280;10065;49.632;8.346;2023-03-21T01:24:15;100784.22;;;12.49;55.96
19811;BME280;10065;49.632;8.346;2023-03-21T01:26:43;100775.22;;;12.50;56.37
19811;BME280;10065;49.632;8.346;2023-03-21T01:29:10;100770.91;;;12.49;56.18
19811;BME280;10065;49.632;8.346;2023-03-21T01:31:38;100787.84;;;12.48;56.61
19811;BME280;10065;49.632;8.346;2023-03-21T01:34:07;100778.50;;;12.43;56.67
19811;BME280;10065;49.632;8.346;2023-03-21T01:36:35;100775.84;;;12.43;56.94
19811;BME280;10065;49.632;8.346;2023-03-21T01:39:04;100776.31;;;12.39;57.13
19811;BME280;10065;49.632;8.346;2023-03-21T01:41:35;100770.91;;;12.31;57.55
19811;BME280;10065;49.632;8.346;2023-03-21T01:44:13;100773.78;;;12.20;57.83
19811;BME280;10065;49.632;8.346;2023-03-21T01:46:43;100777.56;;;12.17;58.14
19811;BME280;10065;49.632;8.346;2023-03-21T01:49:32;100773.03;;;12.27;57.75
19811;BME280;10065;49.632;8.346;2023-03-21T01:52:07;100772.88;;;12.29;57.87
19811;BME280;10065;49.632;8.346;2023-03-21T01:54:46;100774.78;;;12.36;57.69
19811;BME280;10065;49.632;8.346;2023-03-21T01:57:16;100773.25;;;12.34;57.79
19811;BME280;10065;49.632;8.346;2023-03-21T01:59:49;100767.50;;;12.38;57.78
19811;BME280;10065;49.632;8.346;2023-03-21T02:02:20;100765.88;;;12.46;57.71
19811;BME280;10065;49.632;8.346;2023-03-21T02:04:50;100764.13;;;12.36;57.88
19811;BME280;10065;49.632;8.346;2023-03-21T02:07:24;100752.53;;;12.37;57.89
19811;BME280;10065;49.632;8.346;2023-03-21T02:09:55;100753.22;;;12.39;58.00
19811;BME280;10065;49.632;8.346;2023-03-21T02:12:24;100742.25;;;12.42;57.53
19811;BME280;10065;49.632;8.346;2023-03-21T02:14:54;100744.00;;;12.34;57.90
19811;BME280;10065;49.632;8.346;2023-03-21T02:17:27;100740.00;;;12.30;58.37
19811;BME280;10065;49.632;8.346;2023-03-21T02:20:38;100736.41;;;12.21;58.53
19811;BME280;10065;49.632;8.346;2023-03-21T02:23:40;100733.75;;;12.21;58.34
19811;BME280;10065;49.632;8.346;2023-03-21T02:30:17;100738.69;;;12.16;58.94
19811;BME280;10065;49.632;8.346;2023-03-21T02:33:30;100730.56;;;12.18;58.78
19811;BME280;10065;49.632;8.346;2023-03-21T02:36:16;100729.78;;;12.25;58.81
19811;BME280;10065;49.632;8.346;2023-03-21T02:38:52;100730.84;;;12.32;58.22
19811;BME280;10065;49.632;8.346;2023-03-21T02:41:29;100732.53;;;12.33;58.34
19811;BME280;10065;49.632;8.346;2023-03-21T02:44:08;100731.38;;;12.36;58.19
19811;BME280;10065;49.632;8.346;2023-03-21T02:46:43;100733.75;;;12.39;58.10
19811;BME280;10065;49.632;8.346;2023-03-21T02:49:28;100733.44;;;12.42;58.24
19811;BME280;10065;49.632;8.346;2023-03-21T02:51:58;100729.50;;;12.28;58.43
19811;BME280;10065;49.632;8.346;2023-03-21T02:54:42;100727.81;;;12.27;58.70
19811;BME280;10065;49.632;8.346;2023-03-21T02:57:16;100731.47;;;12.26;58.76
19811;BME280;10065;49.632;8.346;2023-03-21T02:59:47;100736.25;;;12.23;58.73
19811;BME280;10065;49.632;8.346;2023-03-21T03:02:26;100737.69;;;12.17;59.02
19811;BME280;10065;49.632;8.346;2023-03-21T03:04:54;100721.47;;;12.20;58.97
19811;BME280;10065;49.632;8.346;2023-03-21T03:07:39;100723.19;;;12.12;59.33
19811;BME280;10065;49.632;8.346;2023-03-21T03:10:35;100719.84;;;12.10;59.37
19811;BME280;10065;49.632;8.346;2023-03-21T03:13:15;100718.56;;;11.96;59.80
19811;BME280;10065;49.632;8.346;2023-03-21T03:15:56;100713.31;;;11.86;60.35
19811;BME280;10065;49.632;8.346;2023-03-21T03:18:34;100718.22;;;11.81;60.52
19811;BME280;10065;49.632;8.346;2023-03-21T03:21:09;100719.69;;;11.76;60.87
19811;BME280;10065;49.632;8.346;2023-03-21T03:23:42;100719.22;;;11.80;60.71
19811;BME280;10065;49.632;8.346;2023-03-21T03:26:15;100717.66;;;11.87;60.45
19811;BME280;10065;49.632;8.346;2023-03-21T03:28:47;100717.25;;;12.00;60.01
19811;BME280;10065;49.632;8.346;2023-03-21T03:31:19;100717.97;;;12.02;60.07
19811;BME280;10065;49.632;8.346;2023-03-21T03:33:54;100725.47;;;12.06;59.95
19811;BME280;10065;49.632;8.346;2023-03-21T03:36:26;100724.63;;;12.06;59.82
19811;BME280;10065;49.632;8.346;2023-03-21T03:38:59;100720.47;;;12.03;59.91
19811;BME280;10065;49.632;8.346;2023-03-21T03:41:34;100715.59;;;11.99;60.16
19811;BME280;10065;49.632;8.346;2023-03-21T03:44:27;100712.25;;;11.97;60.10
19811;BME280;10065;49.632;8.346;2023-03-21T03:46:57;100703.28;;;11.98;60.14
19811;BME280;10065;49.632;8.346;2023-03-21T03:49:28;100707.94;;;11.96;60.23
19811;BME280;10065;49.632;8.346;2023-03-21T03:52:00;100703.13;;;11.99;60.25
19811;BME280;10065;49.632;8.346;2023-03-21T03:54:32;100701.47;;;11.98;60.02
19811;BME280;10065;49.632;8.346;2023-03-21T03:57:05;100713.63;;;12.01;60.08
19811;BME280;10065;49.632;8.346;2023-03-21T03:59:34;100710.59;;;11.96;60.15
19811;BME280;10065;49.632;8.346;2023-03-21T04:02:03;100703.91;;;11.92;60.27
19811;BME280;10065;49.632;8.346;2023-03-21T04:04:32;100708.75;;;11.96;60.46
19811;BME280;10065;49.632;8.346;2023-03-21T04:07:00;100710.75;;;11.94;60.54
19811;BME280;10065;49.632;8.346;2023-03-21T04:09:29;100712.25;;;11.97;60.52
19811;BME280;10065;49.632;8.346;2023-03-21T04:12:10;100703.06;;;11.91;60.66
19811;BME280;10065;49.632;8.346;2023-03-21T04:14:39;100709.06;;;11.93;60.77
19811;BME280;10065;49.632;8.346;2023-03-21T04:17:13;100707.81;;;11.88;61.10
19811;BME280;10065;49.632;8.346;2023-03-21T04:19:41;100711.03;;;11.91;60.68
19811;BME280;10065;49.632;8.346;2023-03-21T04:22:09;100701.16;;;12.01;60.42
19811;BME280;10065;49.632;8.346;2023-03-21T04:24:37;100704.59;;;11.94;60.63
19811;BME280;10065;49.632;8.346;2023-03-21T04:27:05;100708.53;;;11.90;60.90
19811;BME280;10065;49.632;8.346;2023-03-21T04:29:34;100709.50;;;11.89;60.97
19811;BME280;10065;49.632;8.346;2023-03-21T04:32:03;100706.47;;;11.84;61.00
19811;BME280;10065;49.632;8.346;2023-03-21T04:34:31;100700.19;;;11.85;61.25
19811;BME280;10065;49.632;8.346;2023-03-21T04:36:59;100708.84;;;11.87;61.46
19811;BME280;10065;49.632;8.346;2023-03-21T04:39:26;100708.84;;;11.87;61.62
19811;BME280;10065;49.632;8.346;2023-03-21T04:41:54;100714.53;;;11.92;61.68
19811;BME280;10065;49.632;8.346;2023-03-21T04:44:22;100714.38;;;11.93;62.02
19811;BME280;10065;49.632;8.346;2023-03-21T04:46:51;100714.25;;;11.95;62.29
19811;BME280;10065;49.632;8.346;2023-03-21T04:49:19;100717.97;;;12.02;61.53
19811;BME280;10065;49.632;8.346;2023-03-21T04:51:47;100720.91;;;11.99;61.63
19811;BME280;10065;49.632;8.346;2023-03-21T04:54:14;100712.25;;;11.97;61.76
19811;BME280;10065;49.632;8.346;2023-03-21T04:56:42;100708.22;;;11.93;61.74
19811;BME280;10065;49.632;8.346;2023-03-21T04:59:12;100707.63;;;11.99;61.30
19811;BME280;10065;49.632;8.346;2023-03-21T05:01:40;100703.00;;;12.01;61.23
19811;BME280;10065;49.632;8.346;2023-03-21T05:04:11;100694.66;;;11.96;61.48
19811;BME280;10065;49.632;8.346;2023-03-21T05:06:40;100690.63;;;11.92;61.76
19811;BME280;10065;49.632;8.346;2023-03-21T05:09:09;100686.69;;;11.96;61.65
19811;BME280;10065;49.632;8.346;2023-03-21T05:11:39;100687.03;;;12.01;61.58
19811;BME280;10065;49.632;8.346;2023-03-21T05:14:09;100684.94;;;12.04;61.29
19811;BME280;10065;49.632;8.346;2023-03-21T05:16:38;100684.75;;;12.06;60.96
19811;BME280;10065;49.632;8.346;2023-03-21T05:19:15;100683.00;;;11.97;60.98
19811;BME280;10065;49.632;8.346;2023-03-21T05:21:43;100681.25;;;11.88;61.57
19811;BME280;10065;49.632;8.346;2023-03-21T05:24:13;100682.28;;;11.87;61.77
19811;BME280;10065;49.632;8.346;2023-03-21T05:26:43;100671.31;;;11.90;61.60
19811;BME280;10065;49.632;8.346;2023-03-21T05:29:16;100666.69;;;11.92;61.51
19811;BME280;10065;49.632;8.346;2023-03-21T05:31:45;100661.69;;;11.89;61.86
19811;BME280;10065;49.632;8.346;2023-03-21T05:34:13;100669.97;;;11.86;61.97
19811;BME280;10065;49.632;8.346;2023-03-21T05:36:42;100664.81;;;11.84;62.15
19811;BME280;10065;49.632;8.346;2023-03-21T05:39:10;100672.91;;;11.83;62.10
19811;BME280;10065;49.632;8.346;2023-03-21T05:41:37;100662.28;;;11.83;62.05
19811;BME280;10065;49.632;8.346;2023-03-21T05:44:05;100666.34;;;11.87;62.15
19811;BME280;10065;49.632;8.346;2023-03-21T05:46:33;100666.22;;;11.96;61.69
19811;BME280;10065;49.632;8.346;2023-03-21T05:49:01;100663.19;;;11.91;62.00
19811;BME280;10065;49.632;8.346;2023-03-21T05:51:29;100661.84;;;11.87;62.16
19811;BME280;10065;49.632;8.346;2023-03-21T05:53:58;100664.72;;;11.94;61.85
19811;BME280;10065;49.632;8.346;2023-03-21T05:56:26;100677.25;;;12.01;61.56
19811;BME280;10065;49.632;8.346;2023-03-21T05:58:53;100677.09;;;12.03;61.60
19811;BME280;10065;49.632;8.346;2023-03-21T06:01:21;100678.44;;;12.07;61.95
19811;BME280;10065;49.632;8.346;2023-03-21T06:03:49;100677.88;;;12.13;61.77
19811;BME280;10065;49.632;8.346;2023-03-21T06:06:17;100676.94;;;12.22;61.23
19811;BME280;10065;49.632;8.346;2023-03-21T06:08:45;100678.91;;;12.20;61.12
19811;BME280;10065;49.632;8.346;2023-03-21T06:11:21;100684.22;;;12.20;61.18
19811;BME280;10065;49.632;8.346;2023-03-21T06:13:49;100675.88;;;12.15;61.30
19811;BME280;10065;49.632;8.346;2023-03-21T06:16:17;100679.69;;;12.13;61.57
19811;BME280;10065;49.632;8.346;2023-03-21T06:18:45;100680.06;;;12.18;61.55
19811;BME280;10065;49.632;8.346;2023-03-21T06:21:13;100676.56;;;12.17;61.43
19811;BME280;10065;49.632;8.346;2023-03-21T06:23:41;100680.88;;;12.18;61.34
19811;BME280;10065;49.632;8.346;2023-03-21T06:26:09;100677.59;;;12.24;61.35
19811;BME280;10065;49.632;8.346;2023-03-21T06:28:38;100688.53;;;12.39;60.84
19811;BME280;10065;49.632;8.346;2023-03-21T06:31:06;100692.75;;;12.50;60.75
19811;BME280;10065;49.632;8.346;2023-03-21T06:33:34;100689.38;;;12.39;61.38
19811;BME280;10065;49.632;8.346;2023-03-21T06:36:02;100699.25;;;12.47;61.17
19811;BME280;10065;49.632;8.346;2023-03-21T06:38:30;100699.44;;;12.54;61.09
19811;BME280;10065;49.632;8.346;2023-03-21T06:40:58;100700.13;;;12.56;60.61
19811;BME280;10065;49.632;8.346;2023-03-21T06:43:25;100710.38;;;12.51;60.75
19811;BME280;10065;49.632;8.346;2023-03-21T06:45:55;100707.13;;;12.57;60.42
19811;BME280;10065;49.632;8.346;2023-03-21T06:48:22;100698.66;;;12.61;60.47
19811;BME280;10065;49.632;8.346;2023-03-21T06:50:51;100694.09;;;12.71;59.78
19811;BME280;10065;49.632;8.346;2023-03-21T06:53:20;100695.22;;;12.69;59.63
19811;BME280;10065;49.632;8.346;2023-03-21T06:55:50;100694.66;;;12.57;60.09
19811;BME280;10065;49.632;8.346;2023-03-21T06:58:18;100694.81;;;12.56;60.36
19811;BME280;10065;49.632;8.346;2023-03-21T07:00:47;100698.31;;;12.56;59.96
19811;BME280;10065;49.632;8.346;2023-03-21T07:03:16;100693.69;;;12.40;60.25
19811;BME280;10065;49.632;8.346;2023-03-21T07:05:44;100701.06;;;12.47;60.39
19811;BME280;10065;49.632;8.346;2023-03-21T07:08:12;100696.78;;;12.54;60.42
19811;BME280;10065;49.632;8.346;2023-03-21T07:10:40;100704.91;;;12.52;60.62
19811;BME280;10065;49.632;8.346;2023-03-21T07:13:11;100701.72;;;12.66;60.25
19811;BME280;10065;49.632;8.346;2023-03-21T07:15:39;100703.75;;;12.72;59.74
19811;BME280;10065;49.632;8.346;2023-03-21T07:18:08;100705.91;;;12.77;59.60
19811;BME280;10065;49.632;8.346;2023-03-21T07:20:37;100706.59;;;12.79;58.69
19811;BME280;10065;49.632;8.346;2023-03-21T07:23:05;100702.75;;;12.73;58.90
19811;BME280;10065;49.632;8.346;2023-03-21T07:25:33;100702.97;;;12.80;58.68
19811;BME280;10065;49.632;8.346;2023-03-21T07:28:01;100712.22;;;12.76;59.28
19811;BME280;10065;49.632;8.346;2023-03-21T07:30:29;100701.63;;;12.84;59.16
19811;BME280;10065;49.632;8.346;2023-03-21T07:32:57;100709.63;;;12.84;58.72
19811;BME280;10065;49.632;8.346;2023-03-21T07:35:25;100704.84;;;12.88;58.91
19811;BME280;10065;49.632;8.346;2023-03-21T07:37:54;100697.63;;;13.06;58.28
19811;BME280;10065;49.632;8.346;2023-03-21T07:40:22;100700.34;;;13.14;57.96
19811;BME280;10065;49.632;8.346;2023-03-21T07:42:50;100699.59;;;13.30;57.06
19811;BME280;10065;49.632;8.346;2023-03-21T07:45:17;100699.63;;;13.38;56.96
19811;BME280;10065;49.632;8.346;2023-03-21T07:47:47;100697.16;;;13.44;56.70
19811;BME280;10065;49.632;8.346;2023-03-21T07:50:15;100701.16;;;13.48;56.51
19811;BME280;10065;49.632;8.346;2023-03-21T07:52:43;100697.22;;;13.61;56.05
19811;BME280;10065;49.632;8.346;2023-03-21T07:55:13;100696.09;;;13.79;55.66
19811;BME280;10065;49.632;8.346;2023-03-21T07:57:42;100695.13;;;14.05;54.92
19811;BME280;10065;49.632;8.346;2023-03-21T08:00:11;100691.28;;;14.07;54.02
19811;BME280;10065;49.632;8.346;2023-03-21T08:02:49;100693.16;;;14.23;54.13
19811;BME280;10065;49.632;8.346;2023-03-21T08:05:26;100693.31;;;14.29;53.92
19811;BME280;10065;49.632;8.346;2023-03-21T08:07:54;100691.81;;;14.51;53.19
19811;BME280;10065;49.632;8.346;2023-03-21T08:10:24;100689.50;;;14.64;52.51
19811;BME280;10065;49.632;8.346;2023-03-21T08:12:52;100694.31;;;14.77;51.89
19811;BME280;10065;49.632;8.346;2023-03-21T08:15:20;100696.59;;;14.88;50.94
19811;BME280;10065;49.632;8.346;2023-03-21T08:17:48;100685.78;;;14.82;50.81
19811;BME280;10065;49.632;8.346;2023-03-21T08:20:17;100693.47;;;14.77;51.31
19811;BME280;10065;49.632;8.346;2023-03-21T08:22:47;100693.81;;;14.65;51.47
19811;BME280;10065;49.632;8.346;2023-03-21T08:25:16;100693.00;;;14.49;52.07
19811;BME280;10065;49.632;8.346;2023-03-21T08:27:46;100695.84;;;14.47;52.85
19811;BME280;10065;49.632;8.346;2023-03-21T08:30:23;100695.53;;;14.50;53.59
19811;BME280;10065;49.632;8.346;2023-03-21T08:32:55;100703.00;;;14.63;53.63
19811;BME280;10065;49.632;8.346;2023-03-21T08:35:27;100695.50;;;14.66;53.25
19811;BME280;10065;49.632;8.346;2023-03-21T08:37:55;100706.28;;;14.89;52.41
19811;BME280;10065;49.632;8.346;2023-03-21T08:40:23;100705.53;;;15.20;51.32
19811;BME280;10065;49.632;8.346;2023-03-21T08:42:53;100696.84;;;15.26;51.13
19811;BME280;10065;49.632;8.346;2023-03-21T08:45:21;100702.94;;;15.42;50.31
19811;BME280;10065;49.632;8.346;2023-03-21T08:47:49;100698.22;;;15.53;49.67
19811;BME280;10065;49.632;8.346;2023-03-21T08:50:20;100696.50;;;15.68;49.20
19811;BME280;10065;49.632;8.346;2023-03-21T08:52:48;100694.75;;;15.83;48.34
19811;BME280;10065;49.632;8.346;2023-03-21T08:55:17;100696.16;;;15.71;47.90
19811;BME280;10065;49.632;8.346;2023-03-21T08:57:44;100693.19;;;15.58;48.15
19811;BME280;10065;49.632;8.346;2023-03-21T09:00:15;100698.75;;;15.56;47.82
19811;BME280;10065;49.632;8.346;2023-03-21T09:02:45;100696.91;;;15.57;47.99
19811;BME280;10065;49.632;8.346;2023-03-21T09:05:14;100701.06;;;15.51;48.39
19811;BME280;10065;49.632;8.346;2023-03-21T09:07:42;100700.59;;;15.48;48.40
19811;BME280;10065;49.632;8.346;2023-03-21T09:10:12;100700.22;;;15.51;48.43
19811;BME280;10065;49.632;8.346;2023-03-21T09:12:50;100701.41;;;15.48;48.25
19811;BME280;10065;49.632;8.346;2023-03-21T09:15:19;100696.25;;;15.47;48.76
19811;BME280;10065;49.632;8.346;2023-03-21T09:17:50;100693.34;;;15.64;48.25
19811;BME280;10065;49.632;8.346;2023-03-21T09:20:21;100696.31;;;15.69;47.95
19811;BME280;10065;49.632;8.346;2023-03-21T09:22:57;100694.09;;;15.81;47.78
19811;BME280;10065;49.632;8.346;2023-03-21T09:25:27;100699.28;;;15.83;48.47
19811;BME280;10065;49.632;8.346;2023-03-21T09:27:56;100692.97;;;15.98;47.74
19811;BME280;10065;49.632;8.346;2023-03-21T09:30:25;100689.41;;;16.06;47.16
19811;BME280;10065;49.632;8.346;2023-03-21T09:32:54;100690.00;;;16.16;46.97
19811;BME280;10065;49.632;8.346;2023-03-21T09:35:22;100691.47;;;16.18;46.29
19811;BME280;10065;49.632;8.346;2023-03-21T09:37:52;100687.41;;;16.08;46.47
19811;BME280;10065;49.632;8.346;2023-03-21T09:40:38;100689.66;;;15.96;46.69
19811;BME280;10065;49.632;8.346;2023-03-21T09:43:18;100686.41;;;15.78;47.15
19811;BME280;10065;49.632;8.346;2023-03-21T09:45:54;100691.72;;;15.86;47.23
19811;BME280;10065;49.632;8.346;2023-03-21T09:48:33;100689.66;;;15.96;47.22
19811;BME280;10065;49.632;8.346;2023-03-21T09:51:20;100687.25;;;16.01;46.57
19811;BME280;10065;49.632;8.346;2023-03-21T09:53:49;100690.00;;;15.93;46.74
19811;BME280;10065;49.632;8.346;2023-03-21T09:56:20;100684.41;;;15.80;47.46
19811;BME280;10065;49.632;8.346;2023-03-21T09:58:51;100683.22;;;15.83;47.72
19811;BME280;10065;49.632;8.346;2023-03-21T10:01:24;100683.34;;;15.89;47.61
19811;BME280;10065;49.632;8.346;2023-03-21T10:03:56;100693.94;;;15.83;47.74
19811;BME280;10065;49.632;8.346;2023-03-21T10:06:27;100695.09;;;15.80;48.25
19811;BME280;10065;49.632;8.346;2023-03-21T10:08:58;100694.16;;;15.73;48.81
19811;BME280;10065;49.632;8.346;2023-03-21T10:11:30;100694.47;;;15.70;49.50
19811;BME280;10065;49.632;8.346;2023-03-21T10:14:02;100689.03;;;15.63;49.38
19811;BME280;10065;49.632;8.346;2023-03-21T10:16:35;100684.72;;;15.54;50.34
19811;BME280;10065;49.632;8.346;2023-03-21T10:19:10;100690.53;;;15.50;50.66
19811;BME280;10065;49.632;8.346;2023-03-21T10:21:39;100691.38;;;15.58;51.32
19811;BME280;10065;49.632;8.346;2023-03-21T10:24:27;100682.72;;;15.56;51.49
19811;BME280;10065;49.632;8.346;2023-03-21T10:26:56;100679.22;;;15.56;50.93
19811;BME280;10065;49.632;8.346;2023-03-21T10:29:26;100675.88;;;15.54;50.95
19811;BME280;10065;49.632;8.346;2023-03-21T10:31:57;100676.56;;;15.39;51.65
19811;BME280;10065;49.632;8.346;2023-03-21T10:34:29;100667.88;;;15.46;51.25
19811;BME280;10065;49.632;8.346;2023-03-21T10:36:58;100685.75;;;15.45;51.00
19811;BME280;10065;49.632;8.346;2023-03-21T10:39:32;100671.09;;;15.33;50.49
19811;BME280;10065;49.632;8.346;2023-03-21T10:42:01;100677.97;;;15.27;50.53
19811;BME280;10065;49.632;8.346;2023-03-21T10:44:30;100673.31;;;15.21;51.60
19811;BME280;10065;49.632;8.346;2023-03-21T10:47:03;100677.00;;;15.20;51.57
19811;BME280;10065;49.632;8.346;2023-03-21T10:49:32;100669.31;;;15.17;51.17
19811;BME280;10065;49.632;8.346;2023-03-21T10:52:18;100671.50;;;15.14;52.06
19811;BME280;10065;49.632;8.346;2023-03-21T10:54:46;100669.84;;;15.13;51.52
19811;BME280;10065;49.632;8.346;2023-03-21T10:57:17;100665.19;;;15.06;51.91
19811;BME280;10065;49.632;8.346;2023-03-21T10:59:50;100670.06;;;14.95;52.44
19811;BME280;10065;49.632;8.346;2023-03-21T11:02:25;100664.91;;;14.93;52.65
19811;BME280;10065;49.632;8.346;2023-03-21T11:04:54;100666.41;;;14.88;53.51
19811;BME280;10065;49.632;8.346;2023-03-21T11:07:27;100670.41;;;14.92;53.34
19811;BME280;10065;49.632;8.346;2023-03-21T11:09:58;100670.72;;;14.97;52.64
19811;BME280;10065;49.632;8.346;2023-03-21T11:12:32;100666.72;;;15.01;53.18
19811;BME280;10065;49.632;8.346;2023-03-21T11:15:24;100670.88;;;15.03;53.78
19811;BME280;10065;49.632;8.346;2023-03-21T11:17:56;100662.34;;;15.08;53.41
19811;BME280;10065;49.632;8.346;2023-03-21T11:20:24;100669.31;;;15.17;53.71
19811;BME280;10065;49.632;8.346;2023-03-21T11:22:54;100662.63;;;15.21;53.59
19811;BME280;10065;49.632;8.346;2023-03-21T11:25:26;100661.94;;;15.27;54.39
19811;BME280;10065;49.632;8.346;2023-03-21T11:28:04;100654.53;;;15.37;52.85
19811;BME280;10065;49.632;8.346;2023-03-21T11:30:33;100647.16;;;15.48;52.71
19811;BME280;10065;49.632;8.346;2023-03-21T11:33:03;100649.31;;;15.44;53.11
19811;BME280;10065;49.632;8.346;2023-03-21T11:35:35;100647.81;;;15.41;53.37
19811;BME280;10065;49.632;8.346;2023-03-21T11:38:04;100635.31;;;15.42;52.78
19811;BME280;10065;49.632;8.346;2023-03-21T11:40:33;100641.34;;;15.36;52.75
19811;BME280;10065;49.632;8.346;2023-03-21T11:43:03;100640.19;;;15.38;52.33
19811;BME280;10065;49.632;8.346;2023-03-21T11:45:32;100638.34;;;15.39;52.93
19811;BME280;10065;49.632;8.346;2023-03-21T11:48:07;100634.84;;;15.38;53.36
19811;BME280;10065;49.632;8.346;2023-03-21T11:50:40;100633.16;;;15.37;53.57
19811;BME280;10065;49.632;8.346;2023-03-21T11:53:19;100630.13;;;15.40;52.67
19811;BME280;10065;49.632;8.346;2023-03-21T11:56:04;100630.44;;;15.46;53.16
19811;BME280;10065;49.632;8.346;2023-03-21T11:58:45;100621.41;;;15.55;51.97
19811;BME280;10065;49.632;8.346;2023-03-21T12:01:24;100619.50;;;15.63;51.78
19811;BME280;10065;49.632;8.346;2023-03-21T12:04:00;100614.72;;;15.82;51.19
19811;BME280;10065;49.632;8.346;2023-03-21T12:06:34;100611.31;;;15.88;50.46
19811;BME280;10065;49.632;8.346;2023-03-21T12:09:24;100603.47;;;15.86;50.10
19811;BME280;10065;49.632;8.346;2023-03-21T12:12:04;100601.31;;;16.04;49.69
19811;BME280;10065;49.632;8.346;2023-03-21T12:14:43;100603.34;;;16.02;50.22
19811;BME280;10065;49.632;8.346;2023-03-21T12:17:24;100597.28;;;16.08;49.95
19811;BME280;10065;49.632;8.346;2023-03-21T12:20:08;100596.22;;;15.95;50.42
19811;BME280;10065;49.632;8.346;2023-03-21T12:22:46;100593.94;;;15.84;50.47
19811;BME280;10065;49.632;8.346;2023-03-21T12:25:20;100583.56;;;15.66;50.44
19811;BME280;10065;49.632;8.346;2023-03-21T12:28:00;100586.28;;;15.58;51.06
19811;BME280;10065;49.632;8.346;2023-03-21T12:30:43;100587.53;;;15.47;50.98
19811;BME280;10065;49.632;8.346;2023-03-21T12:33:20;100581.97;;;15.49;51.62
19811;BME280;10065;49.632;8.346;2023-03-21T12:36:01;100566.59;;;15.51;50.19
19811;BME280;10065;49.632;8.346;2023-03-21T12:38:39;100576.69;;;15.40;50.22
19811;BME280;10065;49.632;8.346;2023-03-21T12:41:17;100572.72;;;15.36;50.47
19811;BME280;10065;49.632;8.346;2023-03-21T12:43:53;100561.03;;;15.37;50.93
19811;BME280;10065;49.632;8.346;2023-03-21T12:46:25;100557.97;;;15.40;51.21
19811;BME280;10065;49.632;8.346;2023-03-21T12:48:59;100558.47;;;15.44;50.76
19811;BME280;10065;49.632;8.346;2023-03-21T12:51:32;100561.25;;;15.51;50.62
19811;BME280;10065;49.632;8.346;2023-03-21T12:54:08;100548.28;;;15.48;49.91
19811;BME280;10065;49.632;8.346;2023-03-21T12:56:46;100548.13;;;15.41;50.49
19811;BME280;10065;49.632;8.346;2023-03-21T12:59:22;100544.34;;;15.35;51.36
19811;BME280;10065;49.632;8.346;2023-03-21T13:01:54;100543.69;;;15.33;50.59
19811;BME280;10065;49.632;8.346;2023-03-21T13:04:33;100540.88;;;15.27;50.59
19811;BME280;10065;49.632;8.346;2023-03-21T13:07:07;100532.09;;;15.18;52.13
19811;BME280;10065;49.632;8.346;2023-03-21T13:09:38;100538.59;;;15.16;52.39
19811;BME280;10065;49.632;8.346;2023-03-21T13:12:24;100540.31;;;15.09;52.59
19811;BME280;10065;49.632;8.346;2023-03-21T13:15:04;100534.03;;;15.01;54.32
19811;BME280;10065;49.632;8.346;2023-03-21T13:17:52;100533.25;;;14.93;55.20
19811;BME280;10065;49.632;8.346;2023-03-21T13:20:27;100534.25;;;14.92;57.03
19811;BME280;10065;49.632;8.346;2023-03-21T13:22:58;100534.91;;;14.94;58.95